createdAt,value
2023-03-22T00:01:23.857Z,5.47
2023-03-22T00:03:52.674Z,3.70
2023-03-22T00:06:19.864Z,4.35
2023-03-22T00:08:53.172Z,3.83
2023-03-22T00:11:28.449Z,3.58
2023-03-22T00:13:58.772Z,3.53
2023-03-22T00:16:25.762Z,2.70
2023-03-22T00:18:52.825Z,4.10
2023-03-22T00:21:22.299Z,2.55
2023-03-22T00:23:51.392Z,5.18
2023-03-22T00:26:23.060Z,2.88
2023-03-22T00:28:51.990Z,2.53
2023-03-22T00:31:19.983Z,2.60
2023-03-22T00:33:49.858Z,3.17
2023-03-22T00:36:22.372Z,3.25
2023-03-22T00:38:52.305Z,4.07
2023-03-22T00:41:22.124Z,2.72
2023-03-22T00:43:52.452Z,3.08
2023-03-22T00:46:21.678Z,2.78
2023-03-22T00:48:49.371Z,2.63
2023-03-22T00:51:16.783Z,3.03
2023-03-22T00:53:49.527Z,3.65
2023-03-22T00:56:16.508Z,4.35
2023-03-22T00:58:43.869Z,2.83
2023-03-22T01:01:14.050Z,5.03
2023-03-22T01:03:42.588Z,5.07
2023-03-22T01:06:11.150Z,3.65
2023-03-22T01:08:42.732Z,4.32
2023-03-22T01:13:41.792Z,5.35
2023-03-22T01:16:11.590Z,2.88
2023-03-22T01:18:39.728Z,5.47
2023-03-22T01:21:07.070Z,4.35
2023-03-22T01:23:34.348Z,4.10
2023-03-22T01:26:04.927Z,2.97
2023-03-22T01:28:32.259Z,3.87
2023-03-22T01:31:04.814Z,4.07
2023-03-22T01:33:34.021Z,3.38
2023-03-22T01:36:03.344Z,3.55
2023-03-22T01:38:30.474Z,3.00
2023-03-22T01:40:57.464Z,3.72
2023-03-22T01:43:26.822Z,3.08
2023-03-22T01:45:56.790Z,3.67
2023-03-22T01:48:31.347Z,5.53
2023-03-22T01:51:20.583Z,3.08
2023-03-22T01:54:05.776Z,2.95
2023-03-22T01:56:39.337Z,4.10
2023-03-22T01:59:11.278Z,6.55
2023-03-22T02:01:38.384Z,2.63
2023-03-22T02:04:20.786Z,4.15
2023-03-22T02:06:48.387Z,5.65
2023-03-22T02:09:22.077Z,2.83
2023-03-22T02:12:14.040Z,2.85
2023-03-22T02:17:51.240Z,3.13
2023-03-22T02:20:39.946Z,2.17
2023-03-22T02:23:30.830Z,6.10
2023-03-22T02:26:31.480Z,2.50
2023-03-22T02:29:46.865Z,6.32
2023-03-22T02:33:06.937Z,8.52
2023-03-22T02:36:30.895Z,2.72
2023-03-22T02:39:15.486Z,2.88
2023-03-22T02:42:16.646Z,2.85
2023-03-22T02:45:00.214Z,5.17
2023-03-22T02:47:35.177Z,4.28
2023-03-22T02:50:13.894Z,3.25
2023-03-22T02:52:55.217Z,3.05
2023-03-22T02:55:31.202Z,2.60
2023-03-22T02:58:30.976Z,3.08
2023-03-22T03:01:09.001Z,3.72
2023-03-22T03:03:38.051Z,3.00
2023-03-22T03:06:10.645Z,2.50
2023-03-22T03:08:39.590Z,2.17
2023-03-22T03:11:08.734Z,2.33
2023-03-22T03:13:35.903Z,3.75
2023-03-22T03:16:07.612Z,3.42
2023-03-22T03:19:04.045Z,5.28
2023-03-22T03:21:42.541Z,2.97
2023-03-22T03:24:22.823Z,4.05
2023-03-22T03:27:04.343Z,1.90
2023-03-22T03:29:51.043Z,2.83
2023-03-22T03:32:31.588Z,2.17
2023-03-22T03:35:22.449Z,2.53
2023-03-22T03:38:08.708Z,1.90
2023-03-22T03:40:45.574Z,2.50
2023-03-22T03:43:13.713Z,2.10
2023-03-22T03:45:43.602Z,4.15
2023-03-22T03:48:25.196Z,3.50
2023-03-22T03:50:54.814Z,2.13
2023-03-22T03:53:26.317Z,2.83
2023-03-22T03:55:53.323Z,3.05
2023-03-22T03:58:22.995Z,4.05
2023-03-22T04:00:50.648Z,2.30
2023-03-22T04:03:18.192Z,4.82
2023-03-22T04:05:47.803Z,5.00
2023-03-22T04:08:17.926Z,6.15
2023-03-22T04:10:54.230Z,4.07
2023-03-22T04:13:25.202Z,4.95
2023-03-22T04:16:02.061Z,2.20
2023-03-22T04:18:30.103Z,2.15
2023-03-22T04:20:59.373Z,3.08
2023-03-22T04:23:26.278Z,2.30
2023-03-22T04:25:53.723Z,1.98
2023-03-22T04:28:24.031Z,3.90
2023-03-22T04:30:52.341Z,3.45
2023-03-22T04:33:23.047Z,3.15
2023-03-22T04:35:50.683Z,2.50
2023-03-22T04:38:18.341Z,4.03
2023-03-22T04:40:46.825Z,2.38
2023-03-22T04:43:18.921Z,2.80
2023-03-22T04:45:46.236Z,2.05
2023-03-22T04:48:13.705Z,4.40
2023-03-22T04:50:43.386Z,4.57
2023-03-22T04:53:12.376Z,4.78
2023-03-22T04:55:39.281Z,3.40
2023-03-22T04:58:08.381Z,2.40
2023-03-22T05:00:37.766Z,3.60
2023-03-22T05:03:05.872Z,2.70
2023-03-22T05:05:37.305Z,3.53
2023-03-22T05:08:04.214Z,4.03
2023-03-22T05:10:31.083Z,2.53
2023-03-22T05:13:00.103Z,4.22
2023-03-22T05:15:27.049Z,3.15
2023-03-22T05:17:56.988Z,3.35
2023-03-22T05:20:26.242Z,4.78
2023-03-22T05:22:57.214Z,4.05
2023-03-22T05:25:24.194Z,5.85
2023-03-22T05:27:54.271Z,4.60
2023-03-22T05:30:26.403Z,9.90
2023-03-22T05:33:03.388Z,4.75
2023-03-22T05:35:35.304Z,3.80
2023-03-22T05:38:02.212Z,3.22
2023-03-22T05:40:29.128Z,3.50
2023-03-22T05:42:58.729Z,3.58
2023-03-22T05:45:31.701Z,4.13
2023-03-22T05:47:58.978Z,3.28
2023-03-22T05:50:28.165Z,4.35
2023-03-22T05:52:55.111Z,2.75
2023-03-22T05:55:25.997Z,2.10
2023-03-22T05:57:54.757Z,2.65
2023-03-22T06:00:23.833Z,2.95
2023-03-22T06:02:56.666Z,4.45
2023-03-22T06:05:23.977Z,2.75
2023-03-22T06:07:53.039Z,3.53
2023-03-22T06:10:19.920Z,5.85
2023-03-22T06:12:48.918Z,4.60
2023-03-22T06:15:16.030Z,2.88
2023-03-22T06:17:43.006Z,3.05
2023-03-22T06:20:13.197Z,2.67
2023-03-22T06:22:40.653Z,3.28
2023-03-22T06:25:11.089Z,3.45
2023-03-22T06:27:43.192Z,3.03
2023-03-22T06:30:13.404Z,4.75
2023-03-22T06:32:42.780Z,4.70
2023-03-22T06:35:10.235Z,3.90
2023-03-22T06:37:37.167Z,3.58
2023-03-22T06:40:04.948Z,5.18
2023-03-22T06:42:34.412Z,7.03
2023-03-22T06:45:01.381Z,3.38
2023-03-22T06:47:28.964Z,13.02
2023-03-22T06:49:55.869Z,4.82
2023-03-22T06:52:22.945Z,6.15
2023-03-22T06:54:49.803Z,4.97
2023-03-22T06:57:18.865Z,4.25
2023-03-22T06:59:48.241Z,6.95
2023-03-22T07:02:15.482Z,8.55
2023-03-22T07:04:44.924Z,6.65
2023-03-22T07:07:14.475Z,13.40
2023-03-22T07:09:41.545Z,8.88
2023-03-22T07:12:13.741Z,7.82
2023-03-22T07:14:43.360Z,7.43
2023-03-22T07:17:12.366Z,5.13
2023-03-22T07:19:44.932Z,3.72
2023-03-22T07:22:11.843Z,7.82
2023-03-22T07:24:53.807Z,3.70
2023-03-22T07:27:25.383Z,3.63
2023-03-22T07:29:52.403Z,10.27
2023-03-22T07:32:19.527Z,8.50
2023-03-22T07:34:46.885Z,10.25
2023-03-22T07:37:18.064Z,9.40
2023-03-22T07:39:45.086Z,7.90
2023-03-22T07:42:14.459Z,10.50
2023-03-22T07:44:42.086Z,8.55
2023-03-22T07:47:11.658Z,9.45
2023-03-22T07:49:41.193Z,9.07
2023-03-22T07:52:10.265Z,8.27
2023-03-22T07:54:37.256Z,9.48
2023-03-22T07:57:06.917Z,8.30
2023-03-22T07:59:33.976Z,6.40
2023-03-22T08:02:00.909Z,5.90
2023-03-22T08:04:27.914Z,5.47
2023-03-22T08:07:00.073Z,6.22
2023-03-22T08:09:29.223Z,7.72
2023-03-22T08:11:58.313Z,5.55
2023-03-22T08:14:36.185Z,7.50
2023-03-22T08:17:04.911Z,3.38
2023-03-22T08:19:35.541Z,2.63
2023-03-22T08:22:05.253Z,1.92
2023-03-22T08:24:34.523Z,1.77
2023-03-22T08:27:01.529Z,3.50
2023-03-22T08:29:31.236Z,2.28
2023-03-22T08:32:02.130Z,1.88
2023-03-22T08:34:31.487Z,1.05
2023-03-22T08:37:00.734Z,1.10
2023-03-22T08:39:32.770Z,2.40
2023-03-22T08:42:02.089Z,2.50
2023-03-22T08:44:29.141Z,2.90
2023-03-22T08:46:58.685Z,2.10
2023-03-22T08:49:31.460Z,2.15
2023-03-22T08:51:58.412Z,2.55
2023-03-22T08:54:27.994Z,1.80
2023-03-22T08:56:54.972Z,1.27
2023-03-22T08:59:24.622Z,1.30
2023-03-22T09:01:51.585Z,1.20
2023-03-22T09:04:18.527Z,1.88
2023-03-22T09:06:50.731Z,0.90
2023-03-22T09:09:17.724Z,1.23
2023-03-22T09:11:47.702Z,1.58
2023-03-22T09:14:14.579Z,1.13
2023-03-22T09:16:45.531Z,1.55
2023-03-22T09:19:17.399Z,1.42
2023-03-22T09:21:49.995Z,0.70
2023-03-22T09:24:16.935Z,1.10
2023-03-22T09:26:43.880Z,1.27
2023-03-22T09:29:11.175Z,1.45
2023-03-22T09:31:43.431Z,1.77
2023-03-22T09:34:11.153Z,1.15
2023-03-22T09:36:38.053Z,0.98
2023-03-22T09:39:07.107Z,1.00
2023-03-22T09:41:59.018Z,1.15
2023-03-22T09:44:36.892Z,1.00
2023-03-22T09:47:07.787Z,1.35
2023-03-22T09:49:52.507Z,1.85
2023-03-22T09:52:19.994Z,1.77
2023-03-22T09:54:53.420Z,3.38
2023-03-22T09:57:34.279Z,1.73
2023-03-22T10:00:20.866Z,1.00
2023-03-22T10:03:08.927Z,2.08
2023-03-22T10:05:58.301Z,1.77
2023-03-22T10:08:59.548Z,1.83
2023-03-22T10:12:07.044Z,1.52
2023-03-22T10:14:42.811Z,0.70
2023-03-22T10:17:18.981Z,1.48
2023-03-22T10:20:01.236Z,1.10
2023-03-22T10:22:37.148Z,1.33
2023-03-22T10:25:07.577Z,0.80
2023-03-22T10:27:39.937Z,1.00
2023-03-22T10:30:38.676Z,1.00
2023-03-22T10:33:18.907Z,1.17
2023-03-22T10:35:46.595Z,1.23
2023-03-22T10:38:26.834Z,1.45
2023-03-22T10:40:57.563Z,0.68
2023-03-22T10:43:35.685Z,0.80
2023-03-22T10:46:15.711Z,0.85
2023-03-22T10:48:49.001Z,0.73
2023-03-22T10:51:28.319Z,1.05
2023-03-22T10:53:58.202Z,1.58
2023-03-22T10:56:25.730Z,0.73
2023-03-22T10:58:53.102Z,0.88
2023-03-22T11:01:36.874Z,0.85
2023-03-22T11:04:06.432Z,0.80
2023-03-22T11:06:39.346Z,0.75
2023-03-22T11:09:35.017Z,0.85
2023-03-22T11:12:03.492Z,0.80
2023-03-22T11:14:48.042Z,0.63
2023-03-22T11:17:26.047Z,0.95
2023-03-22T11:20:07.852Z,0.98
2023-03-22T11:22:44.287Z,0.68
2023-03-22T11:25:27.528Z,1.70
2023-03-22T11:28:09.490Z,0.70
2023-03-22T11:30:37.371Z,1.30
2023-03-22T11:33:17.207Z,1.45
2023-03-22T11:35:56.273Z,3.58
2023-03-22T11:38:36.675Z,0.65
2023-03-22T11:41:08.888Z,0.87
2023-03-22T11:43:44.041Z,1.15
2023-03-22T11:46:17.035Z,0.73
2023-03-22T11:48:49.584Z,0.77
2023-03-22T11:51:29.799Z,0.68
2023-03-22T11:54:21.312Z,1.73
2023-03-22T11:56:52.291Z,1.48
2023-03-22T11:59:33.916Z,1.30
2023-03-22T12:02:09.420Z,1.38
2023-03-22T12:04:44.868Z,1.02
2023-03-22T12:07:22.045Z,0.88
2023-03-22T12:10:06.520Z,0.90
2023-03-22T12:12:40.659Z,1.25
2023-03-22T12:15:22.811Z,0.88
2023-03-22T12:18:17.849Z,0.80
2023-03-22T12:21:01.162Z,0.95
2023-03-22T12:23:35.051Z,2.35
2023-03-22T12:26:17.758Z,0.82
2023-03-22T12:28:59.391Z,2.47
2023-03-22T12:32:11.687Z,0.88
2023-03-22T12:34:50.935Z,0.98
2023-03-22T12:37:28.027Z,0.93
2023-03-22T12:40:00.024Z,2.03
2023-03-22T12:43:00.710Z,0.93
2023-03-22T12:45:31.535Z,1.93
2023-03-22T12:48:46.357Z,1.23
2023-03-22T12:51:17.511Z,1.02
2023-03-22T12:53:49.745Z,4.03
2023-03-22T12:56:28.877Z,3.13
2023-03-22T12:59:05.697Z,1.35
2023-03-22T13:02:06.292Z,1.33
2023-03-22T13:04:35.913Z,1.45
2023-03-22T13:07:16.716Z,1.50
2023-03-22T13:09:51.569Z,1.52
2023-03-22T13:12:18.395Z,1.00
2023-03-22T13:14:51.396Z,1.10
2023-03-22T13:17:24.067Z,1.45
2023-03-22T13:20:06.621Z,1.00
2023-03-22T13:22:39.326Z,0.90
2023-03-22T13:25:19.026Z,0.50
2023-03-22T13:27:46.061Z,0.70
2023-03-22T13:30:25.024Z,0.70
2023-03-22T13:33:09.813Z,0.85
2023-03-22T13:35:50.998Z,1.45
2023-03-22T13:41:08.927Z,1.15
2023-03-22T13:43:57.206Z,0.95
2023-03-22T13:46:36.173Z,0.85
2023-03-22T13:49:03.025Z,0.50
2023-03-22T13:51:33.487Z,4.15
2023-03-22T13:54:20.149Z,1.03
2023-03-22T13:57:01.500Z,0.82
2023-03-22T14:02:42.763Z,0.47
2023-03-22T14:05:17.588Z,0.90
2023-03-22T14:07:51.216Z,1.23
2023-03-22T14:10:49.851Z,0.47
2023-03-22T14:13:39.650Z,1.02
2023-03-22T14:16:45.770Z,0.35
2023-03-22T14:19:27.946Z,1.35
